PALH

Lake Hood Seaplane Base

Airport
ICAO code
PALH
IATA Code
LHD
Summary
ICAO Region
NAM
ICAO Territory
Location

, Alaska

Serving
Anchorage
Elevation
71 ft
Coordinates
61° 11' 12" N , 149° 57' 55" W
Metar
PALH 210753Z 24004KT 10SM CLR 17/10 A3018 RMK AO2 SLP219 T01720100

Runways

Designator Length Width Surface Rops
NW/SE 418 46 WATER No/No
N/S 588 61 WATER No/No
E/W 1384 57 WATER No/No

Airport map

Aerial View

SKYbrary Partners:

Safety knowledge contributed by: